Hales Eddy, New York
Current Conditions -  °F | °C
As of 1:55 PM on Thursday 30 Oct 2014 (Local Time) from KMSV Reporting Station
Overcast Overcast  
Wind Chill: 41°   Ceiling: 3200
Heat Index: 46°   Visibility: 10mi
Dew Point: 36°   Wind: 10mph
Humidity: 66%   Direction: 290°WNW
Pressure: 29.99"   Gusts: NA
Location:  41.9099°N, 75.1815°W
Report Text: KMSV 301755Z AUTO 29009KT 10SM BKN032 OVC038 08/02 A2999 RMK AO1 10080 20040 57007
Loading
Personal Weather Stations






























Interactive Weather Map
Tropical Storm Tracking
New forecast layout! Learn more

10-Day Weather Forecast

Advertisements
Track Severe Weather on mobile